createdAt,value
2018-08-28T00:02:50.147Z,16.32
2018-08-28T00:07:47.677Z,16.34
2018-08-28T00:12:45.339Z,16.40
2018-08-28T00:17:42.754Z,16.39
2018-08-28T00:22:40.828Z,16.39
2018-08-28T00:27:38.288Z,16.40
2018-08-28T00:32:35.699Z,16.41
2018-08-28T00:37:33.084Z,16.41
2018-08-28T00:42:30.555Z,16.37
2018-08-28T00:47:28.624Z,16.41
2018-08-28T00:52:26.062Z,16.38
2018-08-28T00:57:23.599Z,16.41
2018-08-28T01:02:20.983Z,16.44
2018-08-28T01:07:18.389Z,16.35
2018-08-28T01:12:15.772Z,16.36
2018-08-28T01:17:14.115Z,16.36
2018-08-28T01:22:12.011Z,16.37
2018-08-28T01:27:09.416Z,16.44
2018-08-28T01:32:06.878Z,16.36
2018-08-28T01:37:04.284Z,16.31
2018-08-28T01:42:01.746Z,16.37
2018-08-28T01:46:59.303Z,16.36
2018-08-28T01:51:57.374Z,16.40
2018-08-28T01:56:54.762Z,16.45
2018-08-28T02:01:52.473Z,16.49
2018-08-28T02:06:49.899Z,16.55
2018-08-28T02:11:47.283Z,16.22
2018-08-28T02:16:44.670Z,16.17
2018-08-28T02:21:42.099Z,15.93
2018-08-28T02:26:39.548Z,15.80
2018-08-28T02:31:36.927Z,15.71
2018-08-28T02:36:34.319Z,15.63
2018-08-28T02:41:31.715Z,15.62
2018-08-28T02:46:29.091Z,15.52
2018-08-28T02:51:27.197Z,15.43
2018-08-28T02:56:25.169Z,15.47
2018-08-28T03:01:22.623Z,15.44
2018-08-28T03:06:20.091Z,15.47
2018-08-28T03:11:17.664Z,15.46
2018-08-28T03:16:15.159Z,15.37
2018-08-28T03:21:13.207Z,15.33
2018-08-28T03:26:10.575Z,15.29
2018-08-28T03:31:08.889Z,15.34
2018-08-28T03:36:06.281Z,15.38
2018-08-28T03:41:03.656Z,15.44
2018-08-28T03:46:01.061Z,15.42
2018-08-28T03:50:58.555Z,15.36
2018-08-28T03:55:56.552Z,15.33
2018-08-28T04:00:53.942Z,15.38
2018-08-28T04:05:51.443Z,15.36
2018-08-28T04:10:48.835Z,15.33
2018-08-28T04:15:46.249Z,15.32
2018-08-28T04:20:43.640Z,15.33
2018-08-28T04:25:41.071Z,15.52
2018-08-28T04:30:38.553Z,15.48
2018-08-28T04:35:35.913Z,15.53
2018-08-28T04:40:33.300Z,15.44
2018-08-28T04:45:30.727Z,15.34
2018-08-28T04:50:28.130Z,15.36
2018-08-28T04:55:25.538Z,15.35
2018-08-28T05:00:23.000Z,15.48
2018-08-28T05:05:21.074Z,15.52
2018-08-28T05:10:18.463Z,15.74
2018-08-28T05:15:15.840Z,15.82
2018-08-28T05:20:14.323Z,15.78
2018-08-28T05:25:11.782Z,15.91
2018-08-28T05:30:09.231Z,15.82
2018-08-28T05:35:06.776Z,15.94
2018-08-28T05:40:04.196Z,15.93
2018-08-28T05:45:01.621Z,16.11
2018-08-28T05:50:01.225Z,16.22
2018-08-28T05:54:58.985Z,16.30
2018-08-28T05:59:56.392Z,16.31
2018-08-28T06:04:53.776Z,16.39
2018-08-28T06:09:51.783Z,16.49
2018-08-28T06:14:49.251Z,16.63
2018-08-28T06:19:50.719Z,16.72
2018-08-28T06:24:48.104Z,17.01
2018-08-28T06:29:45.496Z,17.05
2018-08-28T06:34:42.879Z,17.22
2018-08-28T06:39:40.268Z,17.15
2018-08-28T06:44:38.664Z,17.31
2018-08-28T06:49:41.899Z,17.56
2018-08-28T06:54:39.384Z,17.73
2018-08-28T06:59:37.084Z,17.98
2018-08-28T07:04:34.476Z,18.22
2018-08-28T07:09:31.865Z,18.28
2018-08-28T07:14:29.271Z,18.33
2018-08-28T07:19:32.660Z,18.39
2018-08-28T07:24:30.134Z,18.52
2018-08-28T07:29:27.513Z,18.64
2018-08-28T07:34:25.027Z,18.85
2018-08-28T07:39:22.416Z,18.50
2018-08-28T07:44:20.922Z,18.56
2018-08-28T07:49:28.511Z,18.42
2018-08-28T07:54:26.000Z,18.75
2018-08-28T07:59:23.402Z,18.81
2018-08-28T08:04:20.814Z,18.53
2018-08-28T08:09:18.186Z,18.74
2018-08-28T08:14:15.571Z,18.90
2018-08-28T08:19:21.221Z,18.80
2018-08-28T08:24:18.695Z,18.68
2018-08-28T08:29:16.103Z,18.74
2018-08-28T08:34:13.504Z,18.71
2018-08-28T08:39:11.338Z,19.74
2018-08-28T08:44:08.734Z,20.04
2018-08-28T08:49:09.851Z,19.28
2018-08-28T08:54:07.292Z,19.44
2018-08-28T08:59:04.700Z,19.78
2018-08-28T09:04:02.464Z,20.12
2018-08-28T09:09:00.063Z,19.23
2018-08-28T09:13:57.450Z,20.00
2018-08-28T09:18:54.868Z,20.97
2018-08-28T09:23:52.274Z,20.30
2018-08-28T09:28:49.780Z,21.05
2018-08-28T09:33:48.078Z,21.41
2018-08-28T09:38:45.501Z,21.75
2018-08-28T09:43:43.236Z,21.91
2018-08-28T09:48:40.991Z,22.41
2018-08-28T09:53:38.372Z,22.46
2018-08-28T09:58:35.800Z,22.97
2018-08-28T10:03:33.218Z,22.81
2018-08-28T10:08:30.674Z,21.55
2018-08-28T10:13:28.176Z,20.57
2018-08-28T10:18:25.559Z,20.35
2018-08-28T10:23:23.087Z,20.61
2018-08-28T10:28:20.459Z,20.94
2018-08-28T10:33:17.942Z,21.13
2018-08-28T10:38:15.417Z,21.85
2018-08-28T10:43:12.787Z,21.36
2018-08-28T10:48:10.236Z,21.17
2018-08-28T10:53:07.747Z,21.14
2018-08-28T10:58:05.155Z,21.05
2018-08-28T11:03:02.578Z,21.25
2018-08-28T11:07:59.979Z,21.63
2018-08-28T11:12:57.384Z,22.01
2018-08-28T11:17:55.068Z,21.91
2018-08-28T11:22:52.599Z,21.97
2018-08-28T11:27:50.064Z,21.99
2018-08-28T11:32:47.555Z,21.87
2018-08-28T11:37:44.935Z,21.66
2018-08-28T11:42:42.353Z,21.04
2018-08-28T11:47:39.759Z,20.53
2018-08-28T11:52:37.540Z,20.39
2018-08-28T11:57:34.961Z,20.40
2018-08-28T12:02:32.358Z,20.81
2018-08-28T12:07:29.996Z,21.00
2018-08-28T12:12:27.340Z,21.31
2018-08-28T12:17:25.441Z,20.61
2018-08-28T12:22:23.043Z,20.80
2018-08-28T12:27:20.467Z,21.06
2018-08-28T12:32:17.863Z,21.06
2018-08-28T12:37:16.830Z,21.57
2018-08-28T12:42:27.116Z,21.96
2018-08-28T12:47:27.058Z,22.38
2018-08-28T12:52:27.759Z,22.89
2018-08-28T12:57:31.884Z,23.54
2018-08-28T13:02:31.636Z,23.75
2018-08-28T13:07:29.491Z,22.69
2018-08-28T13:12:28.253Z,23.36
2018-08-28T13:17:27.368Z,23.60
2018-08-28T13:22:25.414Z,24.54
2018-08-28T13:27:22.824Z,24.46
2018-08-28T13:32:20.207Z,23.57
2018-08-28T13:37:17.586Z,24.12
2018-08-28T13:42:14.981Z,25.44
2018-08-28T13:47:12.503Z,24.63
2018-08-28T13:52:13.305Z,25.07
2018-08-28T13:57:13.955Z,25.33
2018-08-28T14:02:12.393Z,25.08
2018-08-28T14:07:09.808Z,24.43
2018-08-28T14:12:07.219Z,24.68
2018-08-28T14:17:04.896Z,24.94
2018-08-28T14:22:02.273Z,25.22
2018-08-28T14:26:59.732Z,25.03
2018-08-28T14:31:57.171Z,25.10
2018-08-28T14:36:54.583Z,25.06
2018-08-28T14:41:52.245Z,25.15
2018-08-28T14:46:49.636Z,25.86
2018-08-28T14:51:47.366Z,25.33
2018-08-28T14:56:44.950Z,24.33
2018-08-28T15:01:42.211Z,25.34
2018-08-28T15:06:39.631Z,26.08
2018-08-28T15:11:37.055Z,24.44
2018-08-28T15:16:34.489Z,23.65
2018-08-28T15:21:32.023Z,23.46
2018-08-28T15:26:29.419Z,23.12
2018-08-28T15:31:26.890Z,23.15
2018-08-28T15:36:25.325Z,23.02
2018-08-28T15:41:22.710Z,23.97
2018-08-28T15:46:20.120Z,23.67
2018-08-28T15:51:17.660Z,23.84
2018-08-28T15:56:14.995Z,23.50
2018-08-28T16:01:12.420Z,23.45
2018-08-28T16:06:14.331Z,23.50
2018-08-28T16:11:13.737Z,22.97
2018-08-28T16:16:13.325Z,24.13
2018-08-28T16:21:13.311Z,23.46
2018-08-28T16:26:13.892Z,24.62
2018-08-28T16:31:12.307Z,25.23
2018-08-28T16:36:10.722Z,25.26
2018-08-28T16:41:09.235Z,24.21
2018-08-28T16:46:08.686Z,24.61
2018-08-28T16:51:07.086Z,25.57
2018-08-28T16:56:05.430Z,25.82
2018-08-28T17:01:04.499Z,25.79
2018-08-28T17:06:02.920Z,26.19
2018-08-28T17:11:01.178Z,25.94
2018-08-28T17:15:59.224Z,25.47
2018-08-28T17:20:56.651Z,25.49
2018-08-28T17:25:54.108Z,24.97
2018-08-28T17:30:51.544Z,25.11
2018-08-28T17:35:48.950Z,24.47
2018-08-28T17:40:46.340Z,24.30
2018-08-28T17:45:44.680Z,23.03
2018-08-28T17:50:42.059Z,22.24
2018-08-28T17:55:39.451Z,21.77
2018-08-28T18:00:36.851Z,21.32
2018-08-28T18:05:34.285Z,20.93
2018-08-28T18:10:31.737Z,20.83
2018-08-28T18:15:29.108Z,20.50
2018-08-28T18:20:26.507Z,20.44
2018-08-28T18:25:23.987Z,19.92
2018-08-28T18:30:21.395Z,20.07
2018-08-28T18:35:18.814Z,19.73
2018-08-28T18:40:16.501Z,19.73
2018-08-28T18:45:14.747Z,19.74
2018-08-28T18:50:13.775Z,19.79
2018-08-28T18:55:11.243Z,19.75
2018-08-28T19:00:08.688Z,19.61
2018-08-28T19:05:06.139Z,19.58
2018-08-28T19:10:03.628Z,19.51
2018-08-28T19:15:01.039Z,19.30
2018-08-28T19:19:59.458Z,19.24
2018-08-28T19:24:56.819Z,19.17
2018-08-28T19:29:54.227Z,19.15
2018-08-28T19:34:51.672Z,18.89
2018-08-28T19:39:49.051Z,18.92
2018-08-28T19:44:47.356Z,18.96
2018-08-28T19:49:48.758Z,18.80
2018-08-28T19:54:50.511Z,18.77
2018-08-28T19:59:54.245Z,18.78
2018-08-28T20:04:58.928Z,18.66
2018-08-28T20:09:58.730Z,18.63
2018-08-28T20:14:57.587Z,18.45
2018-08-28T20:19:56.773Z,18.56
2018-08-28T20:24:55.156Z,18.47
2018-08-28T20:29:53.368Z,18.44
2018-08-28T20:34:51.372Z,18.46
2018-08-28T20:39:49.601Z,18.29
2018-08-28T20:44:47.694Z,18.34
2018-08-28T20:49:46.804Z,18.23
2018-08-28T20:54:44.828Z,18.33
2018-08-28T20:59:42.592Z,18.18
2018-08-28T21:04:40.599Z,18.16
2018-08-28T21:09:38.438Z,17.77
2018-08-28T21:14:36.240Z,17.95
2018-08-28T21:19:36.955Z,17.86
2018-08-28T21:24:35.395Z,17.68
2018-08-28T21:29:33.105Z,17.59
2018-08-28T21:34:30.624Z,17.60
2018-08-28T21:39:28.003Z,17.61
2018-08-28T21:44:25.383Z,17.63
2018-08-28T21:49:29.667Z,17.45
2018-08-28T21:54:28.391Z,17.49
2018-08-28T21:59:25.765Z,17.06
2018-08-28T22:04:23.155Z,16.99
2018-08-28T22:09:20.592Z,16.65
2018-08-28T22:14:18.363Z,16.47
2018-08-28T22:19:27.633Z,16.28
2018-08-28T22:24:25.095Z,16.27
2018-08-28T22:29:22.459Z,16.19
2018-08-28T22:34:19.870Z,15.93
2018-08-28T22:39:17.255Z,15.91
2018-08-28T22:44:14.639Z,15.85
2018-08-28T22:49:16.448Z,15.70
2018-08-28T22:54:14.000Z,15.28
2018-08-28T22:59:11.533Z,14.97
2018-08-28T23:04:08.923Z,14.60
2018-08-28T23:09:07.071Z,14.33
2018-08-28T23:14:05.231Z,14.65
2018-08-28T23:19:03.726Z,14.91
2018-08-28T23:24:01.246Z,14.49
2018-08-28T23:28:58.639Z,14.54
2018-08-28T23:33:56.039Z,14.30
2018-08-28T23:38:53.391Z,14.99
2018-08-28T23:43:52.543Z,14.53
2018-08-28T23:48:49.932Z,14.40
2018-08-28T23:53:47.379Z,14.77
2018-08-28T23:58:44.811Z,14.36
